SBPA/POA METAR and TAF weather

Enter ICAO airport designator
Station Type Date Time Source
SBPA METAR 2021/09/25 13:00 UTC NOAA

SBPA 251300Z VRB02KT 8000 SCT007 SCT025 17/16 Q1020


Station Type Date Time Source
SBPA Decoded METAR 2021/09/25 13:00 UTC NOAA

Porto Alegre Aero-Porto , Brazil (SBPA) 30-00S 051-11W 3M
Sep 25, 2021 - 09:00 AM EDT / 2021.09.25 1300 UTC
Wind: Variable at 2 MPH (2 KT):0
Visibility: 4 mile(s):0
Sky conditions: partly cloudy
Temperature: 62 F (17 C)
Dew Point: 60 F (16 C)
Relative Humidity: 93%
Pressure (altimeter): 30.12 in. Hg (1020 hPa)
ob: SBPA 251300Z VRB02KT 8000 SCT007 SCT025 17/16 Q1020
cycle: 13

Station Type Date Time Source
SBPA TAF 2021/09/25 12:03 UTC NOAA

TAF SBPA 250900Z 2512/2612 27008KT 9999 SCT025 TX21/2518Z TN14/2609Z
BECMG 2518/2520 16009KT
BECMG 2522/2524 09008KT 4000 BR BKN012
BECMG 2610/2612 16010KT 9999 NSW SCT030
RMK PDP

Example: see airport list